Terminal Aerodrome Forecast
Issued by NWS

Home | Current Version | Previous Version | Graphics & Text | Print | Product List | Glossary On
Versions: 1 2 3 4 5 6 7 8 9 10 11 12 13 14 15 16
662
FTUS43 KBIS 240528
TAFDIK
TAF
KDIK 240528Z 2406/2506 28005KT P6SM FEW250
     FM242200 22006KT P6SM SCT250
     FM250200 09004KT P6SM BKN140=

USA.gov is the U.S. government's official web portal to all federal, state and local government web resources and services.